EGEO/OBN METAR and TAF weather

Enter ICAO airport designator
Station Type Date Time Source
EGEO METAR 2019/02/19 15:50 UTC NOAA

EGEO 191550Z 15008KT 9999 FEW018 SCT026 08/04 Q1008


Station Type Date Time Source
EGEO Decoded METAR 2019/02/19 15:50 UTC NOAA

Station name not available
Feb 19, 2019 - 10:50 AM EST / 2019.02.19 1550 UTC
Wind: from the SSE (150 degrees) at 9 MPH (8 KT):0
Visibility: greater than 7 mile(s):0
Sky conditions: partly cloudy
Temperature: 46 F (8 C)
Dew Point: 39 F (4 C)
Relative Humidity: 75%
Pressure (altimeter): 29.77 in. Hg (1008 hPa)
ob: EGEO 191550Z 15008KT 9999 FEW018 SCT026 08/04 Q1008
cycle: 16

Station Type Date Time Source
EGEO TAF UTC NOAA

Error!


Example: see airport list